CheckWX is a tool to help pilots better visualize weather data.  It is not intended as a substitute for an official pre-flight weather briefing.

20:31:11 UTC

FALA METAR
Lanseria Airport
Johannesburg, South Africa
Current

31 mins ago

FALA 222000Z 08008KT CAVOK 20/13 Q1025 NOSIG
Observed
Mar-22 @ 20:00 UTC
Wind
  • 080° at 8 KTS
Visibility
10,000+ meters
Flight Rules
VFR
Cloud Levels
  • Clear skies
Temperature
20°C / 68°F
Dewpoint
13°C / 55°F
Humidity
64%
Altimeter
30.27" Hg
Pressure
1024.92 hPa
Previous

2 hours ago

FALA 221900Z 08009KT CAVOK 21/13 Q1025 NOSIG
Observed
Mar-22 @ 19:00 UTC
Wind
  • 080° at 9 KTS
Visibility
10,000+ meters
Flight Rules
VFR
Cloud Levels
  • Clear skies
Temperature
21°C / 70°F
Dewpoint
13°C / 55°F
Humidity
60%
Altimeter
30.27" Hg
Pressure
1024.92 hPa
Previous

3 hours ago

FALA 221800Z 10007KT CAVOK 21/13 Q1024 NOSIG
Observed
Mar-22 @ 18:00 UTC
Wind
  • 100° at 7 KTS
Visibility
10,000+ meters
Flight Rules
VFR
Cloud Levels
  • Clear skies
Temperature
21°C / 70°F
Dewpoint
13°C / 55°F
Humidity
60%
Altimeter
30.24" Hg
Pressure
1023.92 hPa